createdAt,value
2018-04-06T00:02:22.461Z,17.10
2018-04-06T00:04:50.963Z,17.04
2018-04-06T00:07:19.429Z,17.04
2018-04-06T00:09:47.969Z,16.98
2018-04-06T00:12:16.502Z,16.93
2018-04-06T00:14:45.003Z,16.89
2018-04-06T00:17:13.474Z,16.77
2018-04-06T00:19:41.989Z,16.90
2018-04-06T00:22:10.481Z,16.91
2018-04-06T00:24:38.961Z,16.86
2018-04-06T00:27:07.481Z,16.94
2018-04-06T00:29:35.949Z,16.97
2018-04-06T00:32:04.418Z,17.00
2018-04-06T00:34:32.886Z,16.88
2018-04-06T00:37:01.406Z,16.87
2018-04-06T00:39:29.878Z,16.83
2018-04-06T00:41:58.421Z,16.89
2018-04-06T00:44:26.925Z,16.88
2018-04-06T00:46:55.385Z,16.80
2018-04-06T00:49:23.886Z,16.80
2018-04-06T00:51:52.350Z,16.50
2018-04-06T00:54:20.882Z,16.35
2018-04-06T00:56:49.362Z,16.35
2018-04-06T00:59:17.817Z,16.38
2018-04-06T01:01:46.332Z,16.39
2018-04-06T01:04:14.828Z,16.40
2018-04-06T01:06:43.298Z,16.44
2018-04-06T01:09:11.793Z,16.23
2018-04-06T01:11:40.260Z,16.37
2018-04-06T01:16:43.272Z,16.30
2018-04-06T01:19:11.778Z,16.22
2018-04-06T01:21:40.279Z,16.31
2018-04-06T01:24:08.763Z,16.30
2018-04-06T01:26:37.229Z,16.17
2018-04-06T01:29:05.717Z,16.22
2018-04-06T01:31:34.204Z,16.25
2018-04-06T01:34:02.703Z,16.31
2018-04-06T01:36:31.225Z,16.30
2018-04-06T01:38:59.685Z,16.29
2018-04-06T01:41:28.157Z,16.30
2018-04-06T01:43:56.677Z,16.32
2018-04-06T01:46:25.183Z,16.32
2018-04-06T01:48:53.650Z,16.34
2018-04-06T01:51:22.136Z,16.37
2018-04-06T01:53:50.638Z,16.33
2018-04-06T01:56:19.166Z,16.34
2018-04-06T01:58:47.634Z,16.35
2018-04-06T02:01:16.133Z,16.36
2018-04-06T02:03:44.674Z,16.38
2018-04-06T02:06:13.138Z,16.34
2018-04-06T02:08:41.660Z,16.33
2018-04-06T02:11:10.126Z,16.23
2018-04-06T02:13:38.630Z,16.19
2018-04-06T02:16:07.153Z,16.12
2018-04-06T02:18:35.662Z,16.09
2018-04-06T02:21:04.130Z,16.01
2018-04-06T02:23:32.622Z,15.92
2018-04-06T02:26:01.130Z,15.84
2018-04-06T02:28:29.602Z,15.74
2018-04-06T02:30:58.114Z,15.72
2018-04-06T02:33:26.584Z,15.68
2018-04-06T02:35:55.102Z,15.60
2018-04-06T02:38:23.613Z,15.55
2018-04-06T02:40:52.075Z,15.51
2018-04-06T02:43:20.586Z,15.45
2018-04-06T02:45:49.049Z,15.32
2018-04-06T02:48:17.510Z,15.40
2018-04-06T02:50:46.018Z,15.40
2018-04-06T02:53:14.487Z,15.39
2018-04-06T02:55:42.956Z,15.39
2018-04-06T02:58:11.462Z,15.38
2018-04-06T03:00:39.922Z,15.36
2018-04-06T03:03:08.410Z,15.35
2018-04-06T03:05:36.874Z,15.35
2018-04-06T03:08:05.370Z,15.36
2018-04-06T03:10:33.878Z,15.40
2018-04-06T03:13:02.374Z,15.43
2018-04-06T03:15:30.838Z,15.35
2018-04-06T03:17:59.365Z,15.37
2018-04-06T03:20:27.834Z,15.37
2018-04-06T03:22:56.323Z,15.27
2018-04-06T03:25:24.826Z,15.29
2018-04-06T03:27:53.284Z,15.29
2018-04-06T03:30:21.750Z,15.31
2018-04-06T03:32:50.257Z,15.32
2018-04-06T03:35:18.723Z,15.34
2018-04-06T03:37:47.226Z,15.35
2018-04-06T03:40:15.721Z,15.29
2018-04-06T03:42:44.242Z,15.26
2018-04-06T03:45:12.760Z,15.30
2018-04-06T03:47:41.270Z,15.26
2018-04-06T03:50:09.734Z,15.23
2018-04-06T03:52:38.238Z,15.24
2018-04-06T03:55:06.765Z,15.29
2018-04-06T03:57:35.238Z,15.35
2018-04-06T04:00:03.782Z,15.29
2018-04-06T04:02:32.265Z,15.30
2018-04-06T04:05:00.778Z,15.30
2018-04-06T04:07:29.262Z,15.29
2018-04-06T04:09:57.767Z,15.27
2018-04-06T04:12:26.229Z,15.32
2018-04-06T04:14:54.721Z,15.34
2018-04-06T04:17:23.218Z,15.26
2018-04-06T04:19:51.722Z,15.21
2018-04-06T04:22:20.224Z,15.32
2018-04-06T04:24:48.706Z,15.35
2018-04-06T04:27:17.201Z,15.34
2018-04-06T04:29:45.703Z,15.49
2018-04-06T04:32:14.143Z,15.56
2018-04-06T04:34:42.642Z,15.65
2018-04-06T04:37:11.121Z,15.84
2018-04-06T04:39:39.621Z,15.97
2018-04-06T04:42:08.113Z,16.06
2018-04-06T04:44:36.614Z,16.02
2018-04-06T04:47:05.111Z,16.26
2018-04-06T04:49:33.629Z,16.32
2018-04-06T04:52:02.148Z,16.42
2018-04-06T04:54:30.658Z,16.44
2018-04-06T04:56:59.299Z,16.49
2018-04-06T04:59:27.755Z,16.45
2018-04-06T05:01:56.219Z,16.35
2018-04-06T05:04:24.687Z,16.35
2018-04-06T05:06:53.174Z,16.29
2018-04-06T05:09:21.698Z,16.37
2018-04-06T05:11:50.171Z,16.39
2018-04-06T05:14:18.672Z,16.40
2018-04-06T05:16:47.183Z,16.50
2018-04-06T05:19:15.703Z,16.56
2018-04-06T05:21:44.170Z,16.55
2018-04-06T05:24:12.666Z,16.72
2018-04-06T05:26:41.185Z,16.79
2018-04-06T05:29:09.650Z,16.93
2018-04-06T05:31:38.152Z,17.04
2018-04-06T05:34:06.615Z,17.19
2018-04-06T05:36:35.109Z,17.30
2018-04-06T05:39:03.667Z,17.38
2018-04-06T05:41:32.180Z,17.52
2018-04-06T05:44:00.645Z,17.67
2018-04-06T05:46:29.142Z,17.73
2018-04-06T05:48:57.598Z,17.91
2018-04-06T05:51:26.111Z,18.05
2018-04-06T05:53:54.613Z,18.25
2018-04-06T05:56:23.118Z,18.51
2018-04-06T05:58:51.623Z,18.56
2018-04-06T06:01:20.110Z,18.74
2018-04-06T06:03:48.611Z,18.80
2018-04-06T06:06:17.092Z,18.93
2018-04-06T06:08:45.593Z,18.99
2018-04-06T06:11:14.055Z,18.96
2018-04-06T06:13:42.521Z,18.90
2018-04-06T06:16:10.999Z,18.72
2018-04-06T06:18:39.498Z,18.62
2018-04-06T06:21:07.955Z,18.54
2018-04-06T06:23:36.450Z,18.51
2018-04-06T06:26:04.947Z,18.65
2018-04-06T06:28:33.451Z,18.61
2018-04-06T06:31:01.949Z,18.63
2018-04-06T06:33:30.454Z,18.72
2018-04-06T06:35:58.910Z,18.76
2018-04-06T06:38:27.956Z,18.78
2018-04-06T06:40:56.422Z,18.86
2018-04-06T06:43:24.933Z,18.80
2018-04-06T06:45:53.430Z,18.97
2018-04-06T06:48:21.913Z,18.89
2018-04-06T06:50:50.413Z,18.88
2018-04-06T06:53:18.882Z,18.98
2018-04-06T06:55:47.379Z,18.86
2018-04-06T06:58:15.886Z,18.98
2018-04-06T07:00:44.319Z,19.09
2018-04-06T07:03:12.766Z,19.16
2018-04-06T07:05:41.349Z,19.28
2018-04-06T07:08:09.861Z,19.30
2018-04-06T07:10:38.319Z,19.27
2018-04-06T07:13:06.849Z,19.42
2018-04-06T07:15:35.357Z,19.35
2018-04-06T07:18:03.842Z,19.35
2018-04-06T07:20:32.346Z,19.56
2018-04-06T07:23:00.828Z,19.72
2018-04-06T07:25:29.282Z,19.81
2018-04-06T07:27:57.745Z,20.00
2018-04-06T07:30:26.280Z,19.90
2018-04-06T07:32:54.786Z,20.02
2018-04-06T07:35:23.286Z,20.34
2018-04-06T07:37:51.776Z,20.49
2018-04-06T07:40:20.278Z,20.72
2018-04-06T07:42:48.767Z,20.96
2018-04-06T07:45:17.237Z,21.06
2018-04-06T07:47:45.722Z,21.01
2018-04-06T07:50:14.182Z,20.95
2018-04-06T07:52:42.689Z,20.97
2018-04-06T07:55:11.151Z,20.95
2018-04-06T07:57:39.606Z,21.04
2018-04-06T08:00:08.188Z,20.86
2018-04-06T08:02:36.642Z,20.62
2018-04-06T08:05:05.144Z,20.42
2018-04-06T08:07:33.638Z,20.41
2018-04-06T08:10:02.104Z,20.34
2018-04-06T08:12:30.625Z,20.54
2018-04-06T08:14:59.077Z,20.49
2018-04-06T08:17:27.650Z,20.46
2018-04-06T08:19:56.083Z,20.38
2018-04-06T08:22:24.553Z,20.47
2018-04-06T08:24:53.073Z,20.45
2018-04-06T08:27:21.570Z,20.54
2018-04-06T08:29:50.027Z,20.45
2018-04-06T08:32:18.470Z,20.40
2018-04-06T08:34:46.978Z,20.33
2018-04-06T08:37:15.438Z,20.20
2018-04-06T08:39:43.891Z,20.37
2018-04-06T08:42:12.385Z,20.48
2018-04-06T08:44:40.844Z,20.42
2018-04-06T08:47:09.346Z,20.41
2018-04-06T08:49:37.801Z,20.42
2018-04-06T08:52:06.267Z,20.35
2018-04-06T08:54:34.754Z,20.17
2018-04-06T08:57:03.237Z,20.40
2018-04-06T08:59:31.689Z,20.45
2018-04-06T09:02:00.222Z,20.47
2018-04-06T09:04:28.678Z,20.68
2018-04-06T09:06:57.134Z,20.70
2018-04-06T09:09:25.660Z,20.65
2018-04-06T09:11:54.128Z,20.77
2018-04-06T09:14:22.618Z,20.76
2018-04-06T09:16:51.126Z,20.96
2018-04-06T09:19:19.602Z,20.94
2018-04-06T09:21:48.127Z,21.13
2018-04-06T09:24:16.636Z,21.08
2018-04-06T09:26:45.111Z,21.06
2018-04-06T09:29:13.582Z,20.92
2018-04-06T09:31:42.071Z,21.04
2018-04-06T09:34:10.601Z,21.02
2018-04-06T09:36:39.103Z,21.20
2018-04-06T09:39:07.597Z,21.32
2018-04-06T09:41:36.083Z,21.35
2018-04-06T09:44:04.576Z,21.45
2018-04-06T09:46:33.081Z,21.71
2018-04-06T09:49:01.582Z,21.87
2018-04-06T09:51:30.096Z,22.04
2018-04-06T09:53:58.541Z,22.04
2018-04-06T09:56:27.030Z,22.10
2018-04-06T09:58:55.521Z,22.16
2018-04-06T10:01:24.034Z,22.50
2018-04-06T10:03:52.496Z,22.54
2018-04-06T10:06:20.958Z,22.85
2018-04-06T10:08:49.471Z,22.92
2018-04-06T10:11:17.935Z,23.04
2018-04-06T10:13:46.395Z,23.22
2018-04-06T10:16:14.872Z,23.12
2018-04-06T10:18:43.398Z,23.25
2018-04-06T10:21:11.898Z,23.18
2018-04-06T10:23:40.354Z,23.15
2018-04-06T10:26:08.815Z,23.05
2018-04-06T10:28:37.313Z,22.97
2018-04-06T10:31:05.798Z,22.98
2018-04-06T10:33:34.542Z,23.14
2018-04-06T10:36:03.002Z,23.31
2018-04-06T10:38:31.530Z,23.24
2018-04-06T10:40:59.977Z,23.37
2018-04-06T10:43:28.486Z,23.46
2018-04-06T10:45:56.934Z,23.47
2018-04-06T10:48:25.581Z,23.51
2018-04-06T10:50:54.065Z,23.46
2018-04-06T10:53:22.614Z,23.45
2018-04-06T10:55:51.102Z,23.58
2018-04-06T10:58:19.620Z,23.54
2018-04-06T11:00:48.055Z,23.64
2018-04-06T11:03:16.547Z,23.90
2018-04-06T11:05:45.042Z,23.93
2018-04-06T11:08:13.486Z,23.88
2018-04-06T11:10:42.034Z,23.93
2018-04-06T11:13:10.489Z,24.16
2018-04-06T11:15:38.966Z,24.16
2018-04-06T11:18:07.422Z,24.14
2018-04-06T11:20:35.921Z,24.18
2018-04-06T11:23:04.367Z,23.95
2018-04-06T11:25:32.858Z,23.88
2018-04-06T11:28:01.350Z,24.08
2018-04-06T11:30:29.852Z,24.29
2018-04-06T11:32:58.302Z,24.55
2018-04-06T11:35:26.749Z,24.53
2018-04-06T11:37:55.279Z,24.49
2018-04-06T11:40:23.735Z,24.50
2018-04-06T11:42:52.216Z,24.62
2018-04-06T11:45:20.714Z,24.82
2018-04-06T11:47:49.155Z,24.54
2018-04-06T11:50:17.622Z,24.69
2018-04-06T11:52:46.119Z,24.57
2018-04-06T11:55:14.570Z,24.56
2018-04-06T11:57:43.025Z,24.63
2018-04-06T12:00:11.507Z,24.75
2018-04-06T12:02:39.978Z,24.77
2018-04-06T12:05:08.478Z,24.75
2018-04-06T12:07:36.970Z,24.69
2018-04-06T12:10:05.455Z,24.64
2018-04-06T12:12:33.903Z,24.70
2018-04-06T12:15:02.394Z,24.70
2018-04-06T12:17:30.864Z,24.49
2018-04-06T12:19:59.359Z,24.70
2018-04-06T12:22:27.814Z,24.66
2018-04-06T12:24:56.274Z,24.70
2018-04-06T12:27:24.770Z,24.67
2018-04-06T12:29:53.216Z,24.76
2018-04-06T12:32:21.662Z,24.68
2018-04-06T12:34:50.147Z,24.73
2018-04-06T12:37:18.662Z,24.72
2018-04-06T12:39:47.162Z,24.79
2018-04-06T12:42:15.618Z,24.79
2018-04-06T12:44:44.128Z,24.83
2018-04-06T12:47:12.610Z,24.86
2018-04-06T12:49:41.076Z,24.70
2018-04-06T12:52:09.563Z,24.64
2018-04-06T12:54:38.047Z,24.73
2018-04-06T12:57:06.507Z,24.94
2018-04-06T12:59:34.998Z,24.91
2018-04-06T13:02:03.432Z,25.04
2018-04-06T13:04:31.918Z,25.14
2018-04-06T13:07:00.374Z,25.21
2018-04-06T13:09:28.869Z,25.19
2018-04-06T13:11:57.325Z,25.20
2018-04-06T13:14:25.821Z,25.15
2018-04-06T13:16:54.282Z,24.87
2018-04-06T13:19:22.771Z,24.65
2018-04-06T13:21:51.263Z,24.58
2018-04-06T13:24:19.757Z,24.59
2018-04-06T13:26:48.262Z,24.71
2018-04-06T13:29:16.718Z,24.75
2018-04-06T13:31:45.174Z,24.74
2018-04-06T13:34:13.665Z,24.81
2018-04-06T13:36:42.160Z,24.82
2018-04-06T13:39:10.650Z,24.68
2018-04-06T13:41:39.117Z,24.40
2018-04-06T13:44:07.582Z,24.45
2018-04-06T13:46:36.117Z,24.55
2018-04-06T13:49:04.566Z,24.58
2018-04-06T13:51:33.051Z,24.55
2018-04-06T13:54:01.494Z,24.52
2018-04-06T13:56:30.002Z,24.64
2018-04-06T13:58:58.482Z,24.65
2018-04-06T14:01:26.940Z,24.50
2018-04-06T14:03:55.426Z,24.44
2018-04-06T14:06:23.877Z,24.58
2018-04-06T14:08:52.338Z,24.65
2018-04-06T14:11:20.830Z,24.79
2018-04-06T14:13:49.302Z,24.91
2018-04-06T14:16:17.766Z,24.86
2018-04-06T14:18:46.235Z,24.92
2018-04-06T14:21:14.718Z,24.96
2018-04-06T14:23:43.210Z,25.10
2018-04-06T14:26:11.706Z,25.18
2018-04-06T14:28:40.188Z,25.27
2018-04-06T14:31:08.630Z,25.15
2018-04-06T14:33:37.141Z,25.25
2018-04-06T14:36:05.591Z,25.41
2018-04-06T14:38:34.078Z,25.45
2018-04-06T14:41:02.584Z,25.38
2018-04-06T14:43:31.073Z,25.38
2018-04-06T14:45:59.554Z,25.35
2018-04-06T14:48:28.010Z,25.22
2018-04-06T14:50:56.509Z,25.13
2018-04-06T14:53:24.947Z,25.09
2018-04-06T14:55:53.654Z,25.09
2018-04-06T14:58:22.106Z,25.04
2018-04-06T15:00:50.579Z,25.00
2018-04-06T15:03:19.062Z,24.86
2018-04-06T15:05:47.562Z,24.88
2018-04-06T15:08:16.018Z,24.68
2018-04-06T15:10:44.475Z,24.14
2018-04-06T15:13:12.962Z,23.53
2018-04-06T15:15:41.414Z,23.24
2018-04-06T15:18:09.911Z,22.93
2018-04-06T15:20:38.373Z,22.66
2018-04-06T15:23:06.867Z,22.58
2018-04-06T15:25:35.314Z,22.28
2018-04-06T15:28:03.802Z,21.99
2018-04-06T15:30:32.285Z,21.82
2018-04-06T15:33:00.739Z,21.78
2018-04-06T15:35:29.235Z,21.47
2018-04-06T15:37:57.689Z,21.37
2018-04-06T15:40:26.196Z,21.32
2018-04-06T15:42:54.651Z,21.22
2018-04-06T15:45:24.045Z,20.89
2018-04-06T15:47:52.542Z,20.86
2018-04-06T15:50:21.000Z,20.82
2018-04-06T15:52:49.488Z,20.68
2018-04-06T15:55:17.967Z,20.62
2018-04-06T15:57:46.470Z,20.52
2018-04-06T16:00:14.949Z,20.53
2018-04-06T16:02:43.466Z,20.36
2018-04-06T16:05:11.907Z,20.32
2018-04-06T16:07:40.425Z,20.34
2018-04-06T16:10:08.928Z,20.29
2018-04-06T16:12:37.432Z,20.24
2018-04-06T16:15:05.936Z,20.04
2018-04-06T16:17:34.392Z,20.09
2018-04-06T16:20:02.922Z,19.94
2018-04-06T16:22:31.426Z,19.99
2018-04-06T16:24:59.878Z,20.04
2018-04-06T16:27:28.339Z,20.02
2018-04-06T16:29:56.822Z,19.84
2018-04-06T16:32:25.319Z,19.84
2018-04-06T16:34:53.773Z,19.70
2018-04-06T16:37:22.241Z,19.55
2018-04-06T16:39:50.701Z,19.25
2018-04-06T16:42:19.190Z,19.22
2018-04-06T16:44:47.646Z,19.21
2018-04-06T16:47:16.125Z,19.21
2018-04-06T16:49:44.569Z,19.22
2018-04-06T16:52:13.050Z,19.18
2018-04-06T16:54:41.514Z,19.18
2018-04-06T16:57:10.002Z,19.17
2018-04-06T16:59:38.456Z,19.12
2018-04-06T17:02:06.945Z,18.96
2018-04-06T17:04:35.445Z,18.91
2018-04-06T17:07:03.935Z,18.97
2018-04-06T17:09:32.386Z,18.86
2018-04-06T17:12:00.877Z,18.59
2018-04-06T17:14:29.330Z,18.41
2018-04-06T17:16:57.787Z,18.10
2018-04-06T17:19:26.281Z,17.87
2018-04-06T17:21:54.771Z,17.85
2018-04-06T17:24:23.267Z,17.68
2018-04-06T17:26:51.707Z,17.54
2018-04-06T17:29:20.191Z,17.35
2018-04-06T17:31:48.634Z,17.28
2018-04-06T17:34:17.134Z,17.11
2018-04-06T17:36:45.586Z,17.07
2018-04-06T17:39:14.087Z,17.17
2018-04-06T17:41:42.545Z,17.15
2018-04-06T17:44:11.003Z,17.08
2018-04-06T17:46:39.490Z,17.07
2018-04-06T17:49:07.961Z,17.04
2018-04-06T17:51:36.450Z,17.11
2018-04-06T17:54:04.920Z,17.04
2018-04-06T17:56:33.419Z,16.73
2018-04-06T17:59:01.889Z,16.66
2018-04-06T18:01:30.365Z,16.53
2018-04-06T18:03:58.880Z,16.45
2018-04-06T18:06:27.345Z,16.30
2018-04-06T18:08:55.870Z,16.20
2018-04-06T18:11:24.336Z,16.23
2018-04-06T18:13:52.820Z,16.24
2018-04-06T18:16:21.303Z,16.22
2018-04-06T18:18:49.834Z,16.19
2018-04-06T18:21:18.290Z,16.01
2018-04-06T18:23:46.778Z,15.96
2018-04-06T18:26:15.275Z,15.84
2018-04-06T18:28:43.726Z,15.83
2018-04-06T18:31:12.225Z,15.89
2018-04-06T18:33:40.669Z,15.95
2018-04-06T18:36:09.206Z,15.95
2018-04-06T18:38:37.650Z,15.96
2018-04-06T18:41:06.122Z,15.90
2018-04-06T18:43:34.597Z,15.81
2018-04-06T18:46:03.046Z,15.68
2018-04-06T18:48:31.526Z,15.51
2018-04-06T18:50:59.993Z,15.52
2018-04-06T18:53:28.481Z,15.52
2018-04-06T18:55:56.928Z,15.58
2018-04-06T18:58:25.411Z,15.54
2018-04-06T19:00:53.902Z,15.68
2018-04-06T19:03:22.408Z,15.64
2018-04-06T19:05:50.907Z,15.54
2018-04-06T19:08:19.406Z,15.58
2018-04-06T19:10:47.890Z,15.63
2018-04-06T19:13:16.326Z,15.60
2018-04-06T19:15:44.823Z,15.55
2018-04-06T19:18:13.284Z,15.51
2018-04-06T19:20:41.750Z,15.41
2018-04-06T19:23:10.274Z,15.43
2018-04-06T19:25:38.724Z,15.51
2018-04-06T19:28:07.198Z,15.49
2018-04-06T19:30:35.671Z,15.39
2018-04-06T19:33:04.122Z,15.26
2018-04-06T19:35:32.634Z,15.39
2018-04-06T19:38:01.074Z,15.46
2018-04-06T19:40:29.530Z,15.39
2018-04-06T19:42:58.038Z,15.51
2018-04-06T19:45:26.513Z,15.50
2018-04-06T19:47:54.966Z,15.38
2018-04-06T19:50:23.458Z,15.40
2018-04-06T19:52:51.948Z,15.43
2018-04-06T19:55:20.392Z,15.39
2018-04-06T19:57:48.884Z,15.44
2018-04-06T20:00:17.381Z,15.38
2018-04-06T20:02:45.875Z,15.33
2018-04-06T20:05:14.322Z,15.31
2018-04-06T20:07:42.834Z,15.31
2018-04-06T20:10:11.335Z,15.21
2018-04-06T20:12:39.786Z,15.09
2018-04-06T20:15:08.242Z,15.15
2018-04-06T20:17:36.738Z,15.08
2018-04-06T20:20:05.232Z,15.21
2018-04-06T20:22:33.733Z,15.26
2018-04-06T20:25:02.224Z,15.20
2018-04-06T20:27:30.692Z,15.32
2018-04-06T20:29:59.169Z,15.32
2018-04-06T20:32:27.666Z,15.24
2018-04-06T20:34:56.134Z,15.16
2018-04-06T20:37:24.638Z,15.20
2018-04-06T20:39:53.190Z,15.12
2018-04-06T20:42:21.766Z,15.18
2018-04-06T20:44:50.215Z,15.11
2018-04-06T20:47:18.698Z,15.06
2018-04-06T20:49:47.160Z,15.06
2018-04-06T20:52:15.618Z,15.13
2018-04-06T20:54:44.099Z,15.09
2018-04-06T20:57:12.566Z,15.11
2018-04-06T20:59:40.991Z,15.10
2018-04-06T21:02:09.478Z,14.99
2018-04-06T21:04:37.975Z,15.07
2018-04-06T21:07:06.441Z,15.09
2018-04-06T21:09:34.930Z,15.08
2018-04-06T21:12:03.417Z,15.05
2018-04-06T21:14:31.970Z,15.04
2018-04-06T21:17:00.419Z,15.06
2018-04-06T21:19:28.887Z,15.04
2018-04-06T21:21:57.394Z,14.91
2018-04-06T21:24:25.883Z,14.97
2018-04-06T21:26:54.369Z,14.92
2018-04-06T21:29:22.858Z,14.93
2018-04-06T21:31:51.323Z,14.91
2018-04-06T21:34:19.833Z,14.96
2018-04-06T21:36:48.328Z,14.93
2018-04-06T21:39:16.825Z,15.01
2018-04-06T21:41:45.274Z,14.95
2018-04-06T21:44:13.758Z,15.02
2018-04-06T21:46:42.194Z,14.88
2018-04-06T21:49:10.675Z,14.86
2018-04-06T21:51:39.126Z,14.81
2018-04-06T21:54:07.623Z,14.88
2018-04-06T21:56:36.100Z,14.87
2018-04-06T21:59:04.654Z,14.78
2018-04-06T22:01:33.117Z,14.77
2018-04-06T22:04:01.584Z,14.76
2018-04-06T22:06:30.094Z,14.79
2018-04-06T22:08:58.538Z,14.71
2018-04-06T22:11:26.989Z,14.79
2018-04-06T22:13:55.502Z,14.71
2018-04-06T22:16:23.954Z,14.66
2018-04-06T22:18:52.438Z,14.65
2018-04-06T22:21:20.912Z,14.72
2018-04-06T22:23:49.424Z,14.69
2018-04-06T22:26:17.869Z,14.73
2018-04-06T22:28:47.283Z,14.69
2018-04-06T22:31:15.821Z,14.70
2018-04-06T22:33:44.330Z,14.61
2018-04-06T22:36:12.798Z,14.67
2018-04-06T22:38:41.297Z,14.57
2018-04-06T22:41:09.762Z,14.63
2018-04-06T22:43:38.247Z,14.68
2018-04-06T22:46:06.895Z,14.66
2018-04-06T22:48:35.373Z,14.63
2018-04-06T22:51:03.884Z,14.59
2018-04-06T22:53:32.363Z,14.60
2018-04-06T22:56:00.862Z,14.69
2018-04-06T22:58:29.313Z,14.66
2018-04-06T23:00:57.807Z,14.62
2018-04-06T23:03:26.335Z,14.70
2018-04-06T23:05:54.862Z,14.59
2018-04-06T23:08:23.346Z,14.50
2018-04-06T23:10:51.826Z,14.59
2018-04-06T23:13:20.281Z,14.62
2018-04-06T23:15:48.782Z,14.65
2018-04-06T23:18:17.258Z,14.51
2018-04-06T23:20:45.750Z,14.73
2018-04-06T23:23:14.211Z,14.63
2018-04-06T23:25:42.736Z,14.67
2018-04-06T23:28:11.189Z,14.69
2018-04-06T23:30:39.634Z,14.59
2018-04-06T23:33:08.118Z,14.75
2018-04-06T23:35:36.605Z,14.67
2018-04-06T23:38:05.038Z,14.65
2018-04-06T23:40:33.510Z,14.72
2018-04-06T23:43:02.002Z,14.60
2018-04-06T23:45:30.441Z,14.72
2018-04-06T23:47:58.892Z,14.61
2018-04-06T23:50:27.350Z,14.66
2018-04-06T23:52:55.809Z,14.64
2018-04-06T23:55:24.288Z,14.58
2018-04-06T23:57:52.830Z,14.60
